sensor_id;sensor_type;location;lat;lon;timestamp;pressure;altitude;pressure_sealevel;temperature
67758;BMP180;54562;47.620;18.786;2023-03-19T00:01:48;98826.40;;;5.80
67758;BMP180;54562;47.620;18.786;2023-03-19T00:04:57;98827.80;;;5.80
67758;BMP180;54562;47.620;18.786;2023-03-19T00:08:05;98822.40;;;5.80
67758;BMP180;54562;47.620;18.786;2023-03-19T00:11:15;98816.60;;;5.80
67758;BMP180;54562;47.620;18.786;2023-03-19T00:14:23;98811.40;;;5.88
67758;BMP180;54562;47.620;18.786;2023-03-19T00:17:32;98807.80;;;5.86
67758;BMP180;54562;47.620;18.786;2023-03-19T00:20:40;98801.80;;;5.84
67758;BMP180;54562;47.620;18.786;2023-03-19T00:23:48;98798.20;;;5.86
67758;BMP180;54562;47.620;18.786;2023-03-19T00:26:57;98799.80;;;5.90
67758;BMP180;54562;47.620;18.786;2023-03-19T00:30:08;98802.80;;;5.90
67758;BMP180;54562;47.620;18.786;2023-03-19T00:33:16;98792.60;;;5.90
67758;BMP180;54562;47.620;18.786;2023-03-19T00:36:26;98793.60;;;5.90
67758;BMP180;54562;47.620;18.786;2023-03-19T00:39:36;98790.00;;;5.90
67758;BMP180;54562;47.620;18.786;2023-03-19T00:42:44;98784.40;;;5.90
67758;BMP180;54562;47.620;18.786;2023-03-19T00:45:53;98778.40;;;5.88
67758;BMP180;54562;47.620;18.786;2023-03-19T00:49:01;98778.00;;;5.82
67758;BMP180;54562;47.620;18.786;2023-03-19T00:52:11;98779.40;;;5.80
67758;BMP180;54562;47.620;18.786;2023-03-19T00:55:19;98776.60;;;5.80
67758;BMP180;54562;47.620;18.786;2023-03-19T00:58:27;98783.60;;;5.80
67758;BMP180;54562;47.620;18.786;2023-03-19T01:01:35;98787.80;;;5.80
67758;BMP180;54562;47.620;18.786;2023-03-19T01:04:44;98792.80;;;5.80
67758;BMP180;54562;47.620;18.786;2023-03-19T01:07:54;98791.20;;;5.70
67758;BMP180;54562;47.620;18.786;2023-03-19T01:11:10;98793.80;;;5.72
67758;BMP180;54562;47.620;18.786;2023-03-19T01:14:19;98798.20;;;5.70
67758;BMP180;54562;47.620;18.786;2023-03-19T01:17:28;98795.00;;;5.70
67758;BMP180;54562;47.620;18.786;2023-03-19T01:20:37;98785.80;;;5.60
67758;BMP180;54562;47.620;18.786;2023-03-19T01:23:46;98780.00;;;5.60
67758;BMP180;54562;47.620;18.786;2023-03-19T01:26:54;98777.80;;;5.60
67758;BMP180;54562;47.620;18.786;2023-03-19T01:30:03;98773.60;;;5.60
67758;BMP180;54562;47.620;18.786;2023-03-19T01:33:12;98774.00;;;5.50
67758;BMP180;54562;47.620;18.786;2023-03-19T01:36:20;98774.40;;;5.50
67758;BMP180;54562;47.620;18.786;2023-03-19T01:39:29;98772.20;;;5.46
67758;BMP180;54562;47.620;18.786;2023-03-19T01:42:54;98771.80;;;5.40
67758;BMP180;54562;47.620;18.786;2023-03-19T01:46:10;98773.60;;;5.32
67758;BMP180;54562;47.620;18.786;2023-03-19T01:49:22;98780.40;;;5.30
67758;BMP180;54562;47.620;18.786;2023-03-19T01:52:35;98781.40;;;5.20
67758;BMP180;54562;47.620;18.786;2023-03-19T01:55:43;98780.00;;;5.10
67758;BMP180;54562;47.620;18.786;2023-03-19T01:58:57;98775.60;;;5.00
67758;BMP180;54562;47.620;18.786;2023-03-19T02:02:14;98779.60;;;4.90
67758;BMP180;54562;47.620;18.786;2023-03-19T02:05:24;98770.20;;;4.80
67758;BMP180;54562;47.620;18.786;2023-03-19T02:08:36;98766.00;;;4.80
67758;BMP180;54562;47.620;18.786;2023-03-19T02:11:45;98765.00;;;4.70
67758;BMP180;54562;47.620;18.786;2023-03-19T02:14:55;98760.00;;;4.70
67758;BMP180;54562;47.620;18.786;2023-03-19T02:18:03;98747.20;;;4.70
67758;BMP180;54562;47.620;18.786;2023-03-19T02:21:14;98748.00;;;4.60
67758;BMP180;54562;47.620;18.786;2023-03-19T02:24:27;98753.40;;;4.60
67758;BMP180;54562;47.620;18.786;2023-03-19T02:27:39;98754.00;;;4.60
67758;BMP180;54562;47.620;18.786;2023-03-19T02:30:48;98761.80;;;4.50
67758;BMP180;54562;47.620;18.786;2023-03-19T02:34:04;98763.60;;;4.40
67758;BMP180;54562;47.620;18.786;2023-03-19T02:37:18;98761.80;;;4.30
67758;BMP180;54562;47.620;18.786;2023-03-19T02:40:33;98758.80;;;4.20
67758;BMP180;54562;47.620;18.786;2023-03-19T02:43:43;98753.00;;;4.10
67758;BMP180;54562;47.620;18.786;2023-03-19T02:46:53;98759.00;;;4.00
67758;BMP180;54562;47.620;18.786;2023-03-19T02:50:00;98755.60;;;3.90
67758;BMP180;54562;47.620;18.786;2023-03-19T02:53:09;98764.40;;;3.74
67758;BMP180;54562;47.620;18.786;2023-03-19T02:56:17;98763.00;;;3.60
67758;BMP180;54562;47.620;18.786;2023-03-19T02:59:25;98766.60;;;3.50
67758;BMP180;54562;47.620;18.786;2023-03-19T03:02:33;98766.20;;;3.40
67758;BMP180;54562;47.620;18.786;2023-03-19T03:05:41;98765.00;;;3.38
67758;BMP180;54562;47.620;18.786;2023-03-19T03:08:49;98762.20;;;3.30
67758;BMP180;54562;47.620;18.786;2023-03-19T03:11:57;98764.80;;;3.20
67758;BMP180;54562;47.620;18.786;2023-03-19T03:15:07;98759.00;;;3.20
67758;BMP180;54562;47.620;18.786;2023-03-19T03:18:15;98762.00;;;3.10
67758;BMP180;54562;47.620;18.786;2023-03-19T03:21:23;98762.80;;;3.04
67758;BMP180;54562;47.620;18.786;2023-03-19T03:24:32;98758.80;;;3.00
67758;BMP180;54562;47.620;18.786;2023-03-19T03:27:39;98762.20;;;2.90
67758;BMP180;54562;47.620;18.786;2023-03-19T03:30:48;98757.60;;;2.88
67758;BMP180;54562;47.620;18.786;2023-03-19T03:33:57;98758.40;;;2.80
67758;BMP180;54562;47.620;18.786;2023-03-19T03:37:05;98752.60;;;2.70
67758;BMP180;54562;47.620;18.786;2023-03-19T03:40:16;98753.00;;;2.60
67758;BMP180;54562;47.620;18.786;2023-03-19T03:43:26;98759.20;;;2.60
67758;BMP180;54562;47.620;18.786;2023-03-19T03:46:34;98759.60;;;2.50
67758;BMP180;54562;47.620;18.786;2023-03-19T03:49:43;98760.00;;;2.50
67758;BMP180;54562;47.620;18.786;2023-03-19T03:52:51;98757.00;;;2.50
67758;BMP180;54562;47.620;18.786;2023-03-19T03:56:00;98760.80;;;2.50
67758;BMP180;54562;47.620;18.786;2023-03-19T03:59:08;98763.00;;;2.50
67758;BMP180;54562;47.620;18.786;2023-03-19T04:02:16;98763.80;;;2.46
67758;BMP180;54562;47.620;18.786;2023-03-19T04:05:24;98758.80;;;2.50
67758;BMP180;54562;47.620;18.786;2023-03-19T04:08:32;98754.20;;;2.50
67758;BMP180;54562;47.620;18.786;2023-03-19T04:11:41;98747.40;;;2.50
67758;BMP180;54562;47.620;18.786;2023-03-19T04:14:49;98744.80;;;2.50
67758;BMP180;54562;47.620;18.786;2023-03-19T04:17:57;98738.40;;;2.50
67758;BMP180;54562;47.620;18.786;2023-03-19T04:21:06;98733.00;;;2.50
67758;BMP180;54562;47.620;18.786;2023-03-19T04:24:14;98738.40;;;2.50
67758;BMP180;54562;47.620;18.786;2023-03-19T04:27:24;98734.40;;;2.50
67758;BMP180;54562;47.620;18.786;2023-03-19T04:30:32;98733.60;;;2.50
67758;BMP180;54562;47.620;18.786;2023-03-19T04:33:41;98735.80;;;2.50
67758;BMP180;54562;47.620;18.786;2023-03-19T04:36:50;98737.40;;;2.50
67758;BMP180;54562;47.620;18.786;2023-03-19T04:39:58;98750.80;;;2.50
67758;BMP180;54562;47.620;18.786;2023-03-19T04:46:19;98759.40;;;2.60
67758;BMP180;54562;47.620;18.786;2023-03-19T04:49:28;98759.20;;;2.60
67758;BMP180;54562;47.620;18.786;2023-03-19T04:52:37;98765.60;;;2.60
67758;BMP180;54562;47.620;18.786;2023-03-19T04:55:45;98756.20;;;2.52
67758;BMP180;54562;47.620;18.786;2023-03-19T04:58:55;98751.20;;;2.50
67758;BMP180;54562;47.620;18.786;2023-03-19T05:02:03;98754.00;;;2.40
67758;BMP180;54562;47.620;18.786;2023-03-19T05:05:19;98756.00;;;2.30
67758;BMP180;54562;47.620;18.786;2023-03-19T05:08:27;98754.60;;;2.30
67758;BMP180;54562;47.620;18.786;2023-03-19T05:11:35;98766.80;;;2.30
67758;BMP180;54562;47.620;18.786;2023-03-19T05:14:43;98768.60;;;2.30
67758;BMP180;54562;47.620;18.786;2023-03-19T05:17:52;98767.80;;;2.22
67758;BMP180;54562;47.620;18.786;2023-03-19T05:21:00;98766.00;;;2.20
67758;BMP180;54562;47.620;18.786;2023-03-19T05:24:11;98771.20;;;2.20
67758;BMP180;54562;47.620;18.786;2023-03-19T05:27:19;98774.80;;;2.20
67758;BMP180;54562;47.620;18.786;2023-03-19T05:30:27;98781.00;;;2.20
67758;BMP180;54562;47.620;18.786;2023-03-19T05:33:35;98784.20;;;2.24
67758;BMP180;54562;47.620;18.786;2023-03-19T05:36:43;98787.00;;;2.30
67758;BMP180;54562;47.620;18.786;2023-03-19T05:39:51;98786.20;;;2.40
67758;BMP180;54562;47.620;18.786;2023-03-19T05:43:00;98780.80;;;2.60
67758;BMP180;54562;47.620;18.786;2023-03-19T05:49:15;98778.20;;;3.00
67758;BMP180;54562;47.620;18.786;2023-03-19T05:52:23;98776.20;;;3.20
67758;BMP180;54562;47.620;18.786;2023-03-19T05:55:30;98776.00;;;3.40
67758;BMP180;54562;47.620;18.786;2023-03-19T05:58:39;98773.80;;;3.50
67758;BMP180;54562;47.620;18.786;2023-03-19T06:01:47;98772.80;;;3.70
67758;BMP180;54562;47.620;18.786;2023-03-19T06:04:55;98778.60;;;3.80
67758;BMP180;54562;47.620;18.786;2023-03-19T06:08:04;98780.60;;;3.90
67758;BMP180;54562;47.620;18.786;2023-03-19T06:11:12;98773.80;;;4.00
67758;BMP180;54562;47.620;18.786;2023-03-19T06:14:20;98774.60;;;4.08
67758;BMP180;54562;47.620;18.786;2023-03-19T06:17:28;98772.80;;;4.10
67758;BMP180;54562;47.620;18.786;2023-03-19T06:20:36;98774.20;;;4.20
67758;BMP180;54562;47.620;18.786;2023-03-19T06:23:45;98776.80;;;4.30
67758;BMP180;54562;47.620;18.786;2023-03-19T06:26:53;98786.60;;;4.40
67758;BMP180;54562;47.620;18.786;2023-03-19T06:30:01;98794.40;;;4.60
67758;BMP180;54562;47.620;18.786;2023-03-19T06:33:09;98801.60;;;4.78
67758;BMP180;54562;47.620;18.786;2023-03-19T06:36:17;98808.20;;;4.94
67758;BMP180;54562;47.620;18.786;2023-03-19T06:39:26;98812.20;;;5.12
67758;BMP180;54562;47.620;18.786;2023-03-19T06:42:35;98822.00;;;5.30
67758;BMP180;54562;47.620;18.786;2023-03-19T06:45:43;98815.20;;;5.50
67758;BMP180;54562;47.620;18.786;2023-03-19T06:48:52;98812.00;;;5.70
67758;BMP180;54562;47.620;18.786;2023-03-19T06:52:00;98812.80;;;5.90
67758;BMP180;54562;47.620;18.786;2023-03-19T06:55:10;98811.20;;;6.10
67758;BMP180;54562;47.620;18.786;2023-03-19T06:58:18;98799.80;;;6.20
67758;BMP180;54562;47.620;18.786;2023-03-19T07:01:27;98798.40;;;6.30
67758;BMP180;54562;47.620;18.786;2023-03-19T07:04:35;98801.20;;;6.40
67758;BMP180;54562;47.620;18.786;2023-03-19T07:07:43;98792.40;;;6.38
67758;BMP180;54562;47.620;18.786;2023-03-19T07:10:52;98783.40;;;6.30
67758;BMP180;54562;47.620;18.786;2023-03-19T07:14:00;98782.80;;;6.30
67758;BMP180;54562;47.620;18.786;2023-03-19T07:17:08;98791.40;;;6.40
67758;BMP180;54562;47.620;18.786;2023-03-19T07:20:17;98804.80;;;6.50
67758;BMP180;54562;47.620;18.786;2023-03-19T07:23:25;98813.20;;;6.60
67758;BMP180;54562;47.620;18.786;2023-03-19T07:26:34;98811.60;;;6.70
67758;BMP180;54562;47.620;18.786;2023-03-19T07:29:42;98808.60;;;6.80
67758;BMP180;54562;47.620;18.786;2023-03-19T07:32:50;98807.80;;;6.98
67758;BMP180;54562;47.620;18.786;2023-03-19T07:35:58;98803.00;;;7.06
67758;BMP180;54562;47.620;18.786;2023-03-19T07:42:13;98810.20;;;7.20
67758;BMP180;54562;47.620;18.786;2023-03-19T07:45:21;98806.40;;;7.34
67758;BMP180;54562;47.620;18.786;2023-03-19T07:48:29;98799.60;;;7.54
67758;BMP180;54562;47.620;18.786;2023-03-19T07:51:37;98799.40;;;7.80
67758;BMP180;54562;47.620;18.786;2023-03-19T07:54:45;98797.60;;;7.98
67758;BMP180;54562;47.620;18.786;2023-03-19T07:57:53;98800.80;;;8.20
67758;BMP180;54562;47.620;18.786;2023-03-19T08:01:03;98799.60;;;8.32
67758;BMP180;54562;47.620;18.786;2023-03-19T08:04:12;98799.20;;;8.50
67758;BMP180;54562;47.620;18.786;2023-03-19T08:07:20;98792.00;;;8.70
67758;BMP180;54562;47.620;18.786;2023-03-19T08:10:28;98783.00;;;8.80
67758;BMP180;54562;47.620;18.786;2023-03-19T08:13:36;98790.60;;;8.90
67758;BMP180;54562;47.620;18.786;2023-03-19T08:16:45;98793.40;;;9.00
67758;BMP180;54562;47.620;18.786;2023-03-19T08:19:53;98792.80;;;9.20
67758;BMP180;54562;47.620;18.786;2023-03-19T08:23:01;98792.60;;;9.24
67758;BMP180;54562;47.620;18.786;2023-03-19T08:26:12;98790.80;;;9.30
67758;BMP180;54562;47.620;18.786;2023-03-19T08:29:20;98787.60;;;9.40
67758;BMP180;54562;47.620;18.786;2023-03-19T08:32:27;98780.00;;;9.50
67758;BMP180;54562;47.620;18.786;2023-03-19T08:35:35;98780.80;;;9.60
67758;BMP180;54562;47.620;18.786;2023-03-19T08:38:45;98780.60;;;9.80
67758;BMP180;54562;47.620;18.786;2023-03-19T08:41:53;98776.20;;;9.90
67758;BMP180;54562;47.620;18.786;2023-03-19T08:45:01;98771.40;;;10.00
67758;BMP180;54562;47.620;18.786;2023-03-19T08:51:13;98772.40;;;10.30
67758;BMP180;54562;47.620;18.786;2023-03-19T08:54:21;98782.00;;;10.40
67758;BMP180;54562;47.620;18.786;2023-03-19T08:57:30;98778.00;;;10.58
67758;BMP180;54562;47.620;18.786;2023-03-19T09:00:37;98789.00;;;10.68
67758;BMP180;54562;47.620;18.786;2023-03-19T09:03:45;98782.00;;;10.70
67758;BMP180;54562;47.620;18.786;2023-03-19T09:06:54;98775.20;;;10.88
67758;BMP180;54562;47.620;18.786;2023-03-19T09:10:02;98775.00;;;11.00
67758;BMP180;54562;47.620;18.786;2023-03-19T09:13:10;98776.80;;;11.06
67758;BMP180;54562;47.620;18.786;2023-03-19T09:16:18;98778.60;;;11.10
67758;BMP180;54562;47.620;18.786;2023-03-19T09:19:27;98771.20;;;11.20
67758;BMP180;54562;47.620;18.786;2023-03-19T09:22:35;98770.00;;;11.40
67758;BMP180;54562;47.620;18.786;2023-03-19T09:25:47;98764.20;;;11.50
67758;BMP180;54562;47.620;18.786;2023-03-19T09:28:55;98761.80;;;11.60
67758;BMP180;54562;47.620;18.786;2023-03-19T09:32:04;98762.80;;;11.70
67758;BMP180;54562;47.620;18.786;2023-03-19T09:35:20;98752.80;;;11.90
67758;BMP180;54562;47.620;18.786;2023-03-19T09:38:28;98758.80;;;12.00
67758;BMP180;54562;47.620;18.786;2023-03-19T09:41:48;98757.60;;;12.02
67758;BMP180;54562;47.620;18.786;2023-03-19T09:45:12;98752.80;;;12.14
67758;BMP180;54562;47.620;18.786;2023-03-19T09:48:28;98752.40;;;12.30
67758;BMP180;54562;47.620;18.786;2023-03-19T09:51:45;98752.20;;;12.50
67758;BMP180;54562;47.620;18.786;2023-03-19T09:55:02;98757.00;;;12.60
67758;BMP180;54562;47.620;18.786;2023-03-19T09:58:17;98760.20;;;12.70
67758;BMP180;54562;47.620;18.786;2023-03-19T10:01:32;98766.80;;;12.70
67758;BMP180;54562;47.620;18.786;2023-03-19T10:04:51;98764.60;;;12.80
67758;BMP180;54562;47.620;18.786;2023-03-19T10:12:12;98755.60;;;12.90
67758;BMP180;54562;47.620;18.786;2023-03-19T10:15:28;98749.60;;;12.88
67758;BMP180;54562;47.620;18.786;2023-03-19T10:18:38;98753.40;;;12.80
67758;BMP180;54562;47.620;18.786;2023-03-19T10:21:56;98748.00;;;12.80
67758;BMP180;54562;47.620;18.786;2023-03-19T10:25:12;98747.60;;;12.80
67758;BMP180;54562;47.620;18.786;2023-03-19T10:28:23;98744.00;;;12.92
67758;BMP180;54562;47.620;18.786;2023-03-19T10:31:48;98740.60;;;13.10
67758;BMP180;54562;47.620;18.786;2023-03-19T10:35:03;98739.20;;;13.30
67758;BMP180;54562;47.620;18.786;2023-03-19T10:38:21;98735.60;;;13.36
67758;BMP180;54562;47.620;18.786;2023-03-19T10:41:43;98719.60;;;13.50
67758;BMP180;54562;47.620;18.786;2023-03-19T10:45:00;98723.20;;;13.70
67758;BMP180;54562;47.620;18.786;2023-03-19T10:48:17;98724.60;;;13.70
67758;BMP180;54562;47.620;18.786;2023-03-19T10:51:27;98718.20;;;13.70
67758;BMP180;54562;47.620;18.786;2023-03-19T10:54:41;98712.20;;;13.80
67758;BMP180;54562;47.620;18.786;2023-03-19T10:58:00;98711.80;;;13.90
67758;BMP180;54562;47.620;18.786;2023-03-19T11:01:12;98708.40;;;14.10
67758;BMP180;54562;47.620;18.786;2023-03-19T11:04:22;98698.60;;;14.20
67758;BMP180;54562;47.620;18.786;2023-03-19T11:07:35;98697.20;;;14.28
67758;BMP180;54562;47.620;18.786;2023-03-19T11:10:50;98693.00;;;14.28
67758;BMP180;54562;47.620;18.786;2023-03-19T11:13:58;98690.20;;;14.30
67758;BMP180;54562;47.620;18.786;2023-03-19T11:17:22;98685.40;;;14.46
67758;BMP180;54562;47.620;18.786;2023-03-19T11:20:35;98683.40;;;14.70
67758;BMP180;54562;47.620;18.786;2023-03-19T11:23:45;98683.40;;;15.00
67758;BMP180;54562;47.620;18.786;2023-03-19T11:26:58;98678.60;;;15.00
67758;BMP180;54562;47.620;18.786;2023-03-19T11:30:18;98685.00;;;15.00
67758;BMP180;54562;47.620;18.786;2023-03-19T11:33:47;98681.20;;;15.20
67758;BMP180;54562;47.620;18.786;2023-03-19T11:37:05;98677.60;;;15.34
67758;BMP180;54562;47.620;18.786;2023-03-19T11:40:22;98671.80;;;15.50
67758;BMP180;54562;47.620;18.786;2023-03-19T11:43:45;98666.00;;;15.68
67758;BMP180;54562;47.620;18.786;2023-03-19T11:47:02;98665.20;;;15.74
67758;BMP180;54562;47.620;18.786;2023-03-19T11:50:41;98664.60;;;15.80
67758;BMP180;54562;47.620;18.786;2023-03-19T11:54:07;98652.60;;;15.84
67758;BMP180;54562;47.620;18.786;2023-03-19T11:57:27;98651.40;;;15.96
67758;BMP180;54562;47.620;18.786;2023-03-19T12:00:58;98659.40;;;16.10
67758;BMP180;54562;47.620;18.786;2023-03-19T12:04:28;98653.80;;;16.06
67758;BMP180;54562;47.620;18.786;2023-03-19T12:07:46;98643.40;;;16.02
67758;BMP180;54562;47.620;18.786;2023-03-19T12:11:11;98633.80;;;16.10
67758;BMP180;54562;47.620;18.786;2023-03-19T12:14:43;98631.80;;;16.10
67758;BMP180;54562;47.620;18.786;2023-03-19T12:18:09;98630.00;;;16.14
67758;BMP180;54562;47.620;18.786;2023-03-19T12:21:36;98628.80;;;16.28
67758;BMP180;54562;47.620;18.786;2023-03-19T12:25:14;98619.20;;;16.40
67758;BMP180;54562;47.620;18.786;2023-03-19T12:28:30;98620.20;;;16.44
67758;BMP180;54562;47.620;18.786;2023-03-19T12:32:10;98608.80;;;16.40
67758;BMP180;54562;47.620;18.786;2023-03-19T12:35:30;98608.20;;;16.50
67758;BMP180;54562;47.620;18.786;2023-03-19T12:38:44;98602.60;;;16.60
67758;BMP180;54562;47.620;18.786;2023-03-19T12:41:55;98592.60;;;16.80
67758;BMP180;54562;47.620;18.786;2023-03-19T12:48:24;98589.20;;;16.80
67758;BMP180;54562;47.620;18.786;2023-03-19T12:51:43;98582.60;;;16.80
67758;BMP180;54562;47.620;18.786;2023-03-19T12:55:02;98586.60;;;16.90
67758;BMP180;54562;47.620;18.786;2023-03-19T12:58:20;98584.60;;;17.00
67758;BMP180;54562;47.620;18.786;2023-03-19T13:01:34;98579.80;;;17.00
67758;BMP180;54562;47.620;18.786;2023-03-19T13:04:52;98580.80;;;17.00
67758;BMP180;54562;47.620;18.786;2023-03-19T13:08:11;98580.00;;;17.06
67758;BMP180;54562;47.620;18.786;2023-03-19T13:11:34;98576.00;;;17.10
67758;BMP180;54562;47.620;18.786;2023-03-19T13:14:54;98571.60;;;16.90
67758;BMP180;54562;47.620;18.786;2023-03-19T13:18:19;98563.60;;;16.70
67758;BMP180;54562;47.620;18.786;2023-03-19T13:21:33;98561.60;;;16.70
67758;BMP180;54562;47.620;18.786;2023-03-19T13:24:45;98559.00;;;16.70
67758;BMP180;54562;47.620;18.786;2023-03-19T13:27:56;98561.80;;;16.90
67758;BMP180;54562;47.620;18.786;2023-03-19T13:34:26;98550.20;;;16.90
67758;BMP180;54562;47.620;18.786;2023-03-19T13:37:33;98547.00;;;16.90
67758;BMP180;54562;47.620;18.786;2023-03-19T13:40:48;98543.00;;;16.60
67758;BMP180;54562;47.620;18.786;2023-03-19T13:43:57;98532.20;;;16.50
67758;BMP180;54562;47.620;18.786;2023-03-19T13:47:41;98531.00;;;16.40
67758;BMP180;54562;47.620;18.786;2023-03-19T13:51:00;98536.00;;;16.24
67758;BMP180;54562;47.620;18.786;2023-03-19T13:54:17;98538.00;;;16.10
67758;BMP180;54562;47.620;18.786;2023-03-19T13:57:39;98527.60;;;15.90
67758;BMP180;54562;47.620;18.786;2023-03-19T14:00:59;98534.00;;;15.94
67758;BMP180;54562;47.620;18.786;2023-03-19T14:04:21;98544.40;;;16.00
67758;BMP180;54562;47.620;18.786;2023-03-19T14:07:35;98549.80;;;16.12
67758;BMP180;54562;47.620;18.786;2023-03-19T14:10:50;98539.20;;;16.10
67758;BMP180;54562;47.620;18.786;2023-03-19T14:14:05;98539.00;;;16.04
67758;BMP180;54562;47.620;18.786;2023-03-19T14:17:20;98534.20;;;16.00
67758;BMP180;54562;47.620;18.786;2023-03-19T14:20:33;98533.20;;;16.10
67758;BMP180;54562;47.620;18.786;2023-03-19T14:23:54;98539.80;;;16.40
67758;BMP180;54562;47.620;18.786;2023-03-19T14:27:14;98532.20;;;16.56
67758;BMP180;54562;47.620;18.786;2023-03-19T14:30:32;98529.80;;;16.52
67758;BMP180;54562;47.620;18.786;2023-03-19T14:33:51;98540.00;;;16.38
67758;BMP180;54562;47.620;18.786;2023-03-19T14:37:11;98542.80;;;16.20
67758;BMP180;54562;47.620;18.786;2023-03-19T14:40:25;98540.60;;;16.00
67758;BMP180;54562;47.620;18.786;2023-03-19T14:44:00;98535.20;;;16.00
67758;BMP180;54562;47.620;18.786;2023-03-19T14:47:39;98536.80;;;16.10
67758;BMP180;54562;47.620;18.786;2023-03-19T14:51:19;98532.00;;;16.30
67758;BMP180;54562;47.620;18.786;2023-03-19T14:54:37;98534.00;;;16.40
67758;BMP180;54562;47.620;18.786;2023-03-19T14:57:48;98525.80;;;16.40
67758;BMP180;54562;47.620;18.786;2023-03-19T15:00:57;98532.00;;;16.40
67758;BMP180;54562;47.620;18.786;2023-03-19T15:07:24;98533.80;;;16.10
67758;BMP180;54562;47.620;18.786;2023-03-19T15:10:46;98527.80;;;15.90
67758;BMP180;54562;47.620;18.786;2023-03-19T15:14:18;98530.60;;;15.80
67758;BMP180;54562;47.620;18.786;2023-03-19T15:17:31;98544.00;;;15.70
67758;BMP180;54562;47.620;18.786;2023-03-19T15:20:49;98544.00;;;15.60
67758;BMP180;54562;47.620;18.786;2023-03-19T15:24:00;98537.40;;;15.40
67758;BMP180;54562;47.620;18.786;2023-03-19T15:27:21;98537.80;;;15.20
67758;BMP180;54562;47.620;18.786;2023-03-19T15:30:31;98542.00;;;15.00
67758;BMP180;54562;47.620;18.786;2023-03-19T15:33:58;98538.00;;;14.90
67758;BMP180;54562;47.620;18.786;2023-03-19T15:37:11;98533.60;;;14.70
67758;BMP180;54562;47.620;18.786;2023-03-19T15:40:23;98538.00;;;14.60
67758;BMP180;54562;47.620;18.786;2023-03-19T15:43:34;98545.80;;;14.46
67758;BMP180;54562;47.620;18.786;2023-03-19T15:46:45;98552.20;;;14.40
67758;BMP180;54562;47.620;18.786;2023-03-19T15:50:00;98546.20;;;14.30
67758;BMP180;54562;47.620;18.786;2023-03-19T15:53:14;98549.60;;;14.20
67758;BMP180;54562;47.620;18.786;2023-03-19T15:56:24;98556.20;;;14.10
67758;BMP180;54562;47.620;18.786;2023-03-19T15:59:33;98561.40;;;14.10
67758;BMP180;54562;47.620;18.786;2023-03-19T16:02:45;98550.80;;;14.00
67758;BMP180;54562;47.620;18.786;2023-03-19T16:06:05;98548.60;;;13.90
67758;BMP180;54562;47.620;18.786;2023-03-19T16:09:25;98558.60;;;13.80
67758;BMP180;54562;47.620;18.786;2023-03-19T16:12:39;98556.60;;;13.70
67758;BMP180;54562;47.620;18.786;2023-03-19T16:15:54;98557.20;;;13.70
67758;BMP180;54562;47.620;18.786;2023-03-19T16:19:04;98543.60;;;13.60
67758;BMP180;54562;47.620;18.786;2023-03-19T16:22:17;98544.20;;;13.50
67758;BMP180;54562;47.620;18.786;2023-03-19T16:25:31;98545.80;;;13.40
67758;BMP180;54562;47.620;18.786;2023-03-19T16:28:48;98547.40;;;13.30
67758;BMP180;54562;47.620;18.786;2023-03-19T16:32:03;98552.80;;;13.20
67758;BMP180;54562;47.620;18.786;2023-03-19T16:35:17;98556.80;;;13.10
67758;BMP180;54562;47.620;18.786;2023-03-19T16:38:27;98561.00;;;13.00
67758;BMP180;54562;47.620;18.786;2023-03-19T16:42:32;98566.20;;;12.82
67758;BMP180;54562;47.620;18.786;2023-03-19T16:45:44;98565.60;;;12.70
67758;BMP180;54562;47.620;18.786;2023-03-19T16:48:55;98567.40;;;12.70
67758;BMP180;54562;47.620;18.786;2023-03-19T16:52:14;98571.60;;;12.60
67758;BMP180;54562;47.620;18.786;2023-03-19T16:55:33;98573.40;;;12.50
67758;BMP180;54562;47.620;18.786;2023-03-19T16:58:43;98578.60;;;12.40
67758;BMP180;54562;47.620;18.786;2023-03-19T17:01:52;98582.60;;;12.30
67758;BMP180;54562;47.620;18.786;2023-03-19T17:05:01;98585.80;;;12.20
67758;BMP180;54562;47.620;18.786;2023-03-19T17:11:22;98579.00;;;12.10
67758;BMP180;54562;47.620;18.786;2023-03-19T17:14:33;98587.40;;;12.00
67758;BMP180;54562;47.620;18.786;2023-03-19T17:17:42;98587.80;;;11.96
67758;BMP180;54562;47.620;18.786;2023-03-19T17:20:54;98588.60;;;11.90
67758;BMP180;54562;47.620;18.786;2023-03-19T17:24:19;98590.40;;;11.80
67758;BMP180;54562;47.620;18.786;2023-03-19T17:27:28;98591.40;;;11.70
67758;BMP180;54562;47.620;18.786;2023-03-19T17:30:40;98591.20;;;11.60
67758;BMP180;54562;47.620;18.786;2023-03-19T17:33:49;98584.80;;;11.58
67758;BMP180;54562;47.620;18.786;2023-03-19T17:37:00;98588.80;;;11.50
67758;BMP180;54562;47.620;18.786;2023-03-19T17:40:19;98588.00;;;11.40
67758;BMP180;54562;47.620;18.786;2023-03-19T17:43:28;98583.60;;;11.30
67758;BMP180;54562;47.620;18.786;2023-03-19T17:46:41;98583.00;;;11.30
67758;BMP180;54562;47.620;18.786;2023-03-19T17:49:50;98581.00;;;11.20
67758;BMP180;54562;47.620;18.786;2023-03-19T17:52:59;98582.20;;;11.20
67758;BMP180;54562;47.620;18.786;2023-03-19T17:56:10;98580.40;;;11.10
67758;BMP180;54562;47.620;18.786;2023-03-19T17:59:21;98577.80;;;11.10
67758;BMP180;54562;47.620;18.786;2023-03-19T18:02:32;98574.40;;;11.10
67758;BMP180;54562;47.620;18.786;2023-03-19T18:05:42;98575.80;;;11.02
67758;BMP180;54562;47.620;18.786;2023-03-19T18:08:50;98577.40;;;11.00
67758;BMP180;54562;47.620;18.786;2023-03-19T18:11:58;98575.80;;;10.98
67758;BMP180;54562;47.620;18.786;2023-03-19T18:15:08;98574.00;;;10.90
67758;BMP180;54562;47.620;18.786;2023-03-19T18:18:20;98574.20;;;10.80
67758;BMP180;54562;47.620;18.786;2023-03-19T18:21:29;98567.20;;;10.80
67758;BMP180;54562;47.620;18.786;2023-03-19T18:24:36;98574.60;;;10.70
67758;BMP180;54562;47.620;18.786;2023-03-19T18:27:47;98573.20;;;10.70
67758;BMP180;54562;47.620;18.786;2023-03-19T18:30:55;98570.00;;;10.70
67758;BMP180;54562;47.620;18.786;2023-03-19T18:34:09;98575.40;;;10.76
67758;BMP180;54562;47.620;18.786;2023-03-19T18:37:20;98575.60;;;10.80
67758;BMP180;54562;47.620;18.786;2023-03-19T18:40:30;98574.00;;;10.80
67758;BMP180;54562;47.620;18.786;2023-03-19T18:43:39;98578.40;;;10.88
67758;BMP180;54562;47.620;18.786;2023-03-19T18:46:48;98575.00;;;10.90
67758;BMP180;54562;47.620;18.786;2023-03-19T18:49:56;98576.40;;;10.90